sensor_id;sensor_type;location;lat;lon;timestamp;noise_LAeq;noise_LA_min;noise_LA_max;noise_LA01;noise_LA95
43938;Laerm;71382;47.750;10.226;2023-08-06T00:02:04;36.62;30.36;48.34;;
43938;Laerm;71382;47.750;10.226;2023-08-06T00:04:29;38.85;30.64;49.73;;
43938;Laerm;71382;47.750;10.226;2023-08-06T00:06:55;32.46;30.37;44.37;;
43938;Laerm;71382;47.750;10.226;2023-08-06T00:09:20;32.99;29.93;40.79;;
43938;Laerm;71382;47.750;10.226;2023-08-06T00:11:46;33.45;30.15;42.97;;
43938;Laerm;71382;47.750;10.226;2023-08-06T00:14:12;35.86;30.09;46.74;;
43938;Laerm;71382;47.750;10.226;2023-08-06T00:16:42;34.65;30.09;51.17;;
43938;Laerm;71382;47.750;10.226;2023-08-06T00:19:08;33.11;30.48;42.45;;
43938;Laerm;71382;47.750;10.226;2023-08-06T00:21:33;34.65;30.23;45.50;;
43938;Laerm;71382;47.750;10.226;2023-08-06T00:23:59;32.80;30.11;43.04;;
43938;Laerm;71382;47.750;10.226;2023-08-06T00:26:24;37.37;30.11;50.36;;
43938;Laerm;71382;47.750;10.226;2023-08-06T00:28:50;32.62;30.33;44.89;;
43938;Laerm;71382;47.750;10.226;2023-08-06T00:31:15;32.53;30.47;37.66;;
43938;Laerm;71382;47.750;10.226;2023-08-06T00:33:41;37.60;31.02;50.84;;
43938;Laerm;71382;47.750;10.226;2023-08-06T00:36:07;32.78;30.35;44.32;;
43938;Laerm;71382;47.750;10.226;2023-08-06T00:38:32;33.06;30.29;38.56;;
43938;Laerm;71382;47.750;10.226;2023-08-06T00:40:58;32.61;30.06;46.57;;
43938;Laerm;71382;47.750;10.226;2023-08-06T00:43:23;34.30;30.43;44.55;;
43938;Laerm;71382;47.750;10.226;2023-08-06T00:45:49;35.56;30.38;59.17;;
43938;Laerm;71382;47.750;10.226;2023-08-06T00:48:15;33.14;30.55;48.72;;
43938;Laerm;71382;47.750;10.226;2023-08-06T00:50:41;34.42;30.49;44.60;;
43938;Laerm;71382;47.750;10.226;2023-08-06T00:53:06;40.05;32.99;49.94;;
43938;Laerm;71382;47.750;10.226;2023-08-06T00:55:32;40.19;31.29;54.93;;
43938;Laerm;71382;47.750;10.226;2023-08-06T00:57:58;38.87;30.51;54.23;;
43938;Laerm;71382;47.750;10.226;2023-08-06T01:00:25;34.94;30.54;52.65;;
43938;Laerm;71382;47.750;10.226;2023-08-06T01:02:51;39.96;30.48;58.62;;
43938;Laerm;71382;47.750;10.226;2023-08-06T01:05:17;35.23;30.37;47.14;;
43938;Laerm;71382;47.750;10.226;2023-08-06T01:10:17;38.28;30.18;57.26;;
43938;Laerm;71382;47.750;10.226;2023-08-06T01:15:23;37.09;30.57;51.26;;
43938;Laerm;71382;47.750;10.226;2023-08-06T01:17:49;37.35;30.64;53.81;;
43938;Laerm;71382;47.750;10.226;2023-08-06T01:20:15;33.94;30.33;45.65;;
43938;Laerm;71382;47.750;10.226;2023-08-06T01:22:41;33.83;30.31;48.09;;
43938;Laerm;71382;47.750;10.226;2023-08-06T01:25:06;40.37;30.73;63.86;;
43938;Laerm;71382;47.750;10.226;2023-08-06T01:27:33;35.52;30.35;55.14;;
43938;Laerm;71382;47.750;10.226;2023-08-06T01:30:12;38.22;30.33;60.21;;
43938;Laerm;71382;47.750;10.226;2023-08-06T01:32:39;36.97;30.27;51.15;;
43938;Laerm;71382;47.750;10.226;2023-08-06T01:35:07;35.83;30.17;56.11;;
43938;Laerm;71382;47.750;10.226;2023-08-06T01:37:35;32.23;30.14;38.93;;
43938;Laerm;71382;47.750;10.226;2023-08-06T01:40:05;42.23;30.21;57.04;;
43938;Laerm;71382;47.750;10.226;2023-08-06T01:42:31;32.68;30.37;45.94;;
43938;Laerm;71382;47.750;10.226;2023-08-06T01:44:57;37.65;30.26;48.27;;
43938;Laerm;71382;47.750;10.226;2023-08-06T01:47:22;34.25;30.15;52.98;;
43938;Laerm;71382;47.750;10.226;2023-08-06T01:49:48;35.89;30.32;59.67;;
43938;Laerm;71382;47.750;10.226;2023-08-06T01:52:13;35.50;30.42;47.55;;
43938;Laerm;71382;47.750;10.226;2023-08-06T01:54:39;39.96;31.10;58.72;;
43938;Laerm;71382;47.750;10.226;2023-08-06T01:57:05;37.31;30.88;52.28;;
43938;Laerm;71382;47.750;10.226;2023-08-06T01:59:30;39.07;31.15;60.75;;
43938;Laerm;71382;47.750;10.226;2023-08-06T02:01:56;36.38;30.82;55.03;;
43938;Laerm;71382;47.750;10.226;2023-08-06T02:04:22;37.98;31.03;55.30;;
43938;Laerm;71382;47.750;10.226;2023-08-06T02:06:48;33.46;30.62;53.49;;
43938;Laerm;71382;47.750;10.226;2023-08-06T02:09:13;33.78;30.56;49.29;;
43938;Laerm;71382;47.750;10.226;2023-08-06T02:11:39;34.37;30.68;53.91;;
43938;Laerm;71382;47.750;10.226;2023-08-06T02:14:04;45.09;30.89;64.34;;
43938;Laerm;71382;47.750;10.226;2023-08-06T02:16:30;37.90;30.81;57.11;;
43938;Laerm;71382;47.750;10.226;2023-08-06T02:18:56;35.13;30.18;58.29;;
43938;Laerm;71382;47.750;10.226;2023-08-06T02:21:25;33.73;29.99;54.06;;
43938;Laerm;71382;47.750;10.226;2023-08-06T02:23:51;38.85;30.28;60.75;;
43938;Laerm;71382;47.750;10.226;2023-08-06T02:26:16;32.43;30.14;50.22;;
43938;Laerm;71382;47.750;10.226;2023-08-06T02:28:42;33.44;30.11;46.80;;
43938;Laerm;71382;47.750;10.226;2023-08-06T02:31:08;37.27;30.17;58.54;;
43938;Laerm;71382;47.750;10.226;2023-08-06T02:33:36;35.46;30.53;53.02;;
43938;Laerm;71382;47.750;10.226;2023-08-06T02:36:02;32.01;30.64;42.20;;
43938;Laerm;71382;47.750;10.226;2023-08-06T02:38:31;33.04;30.46;49.09;;
43938;Laerm;71382;47.750;10.226;2023-08-06T02:40:57;37.57;30.90;59.62;;
43938;Laerm;71382;47.750;10.226;2023-08-06T02:43:23;34.16;30.96;50.37;;
43938;Laerm;71382;47.750;10.226;2023-08-06T02:45:49;33.65;30.64;53.55;;
43938;Laerm;71382;47.750;10.226;2023-08-06T02:48:14;34.14;30.81;50.03;;
43938;Laerm;71382;47.750;10.226;2023-08-06T02:50:41;34.07;30.52;51.34;;
43938;Laerm;71382;47.750;10.226;2023-08-06T02:53:07;31.96;30.38;45.03;;
43938;Laerm;71382;47.750;10.226;2023-08-06T02:55:33;31.58;30.39;40.54;;
43938;Laerm;71382;47.750;10.226;2023-08-06T02:58:00;37.44;30.52;58.62;;
43938;Laerm;71382;47.750;10.226;2023-08-06T03:00:26;33.36;30.18;47.54;;
43938;Laerm;71382;47.750;10.226;2023-08-06T03:02:51;36.28;30.17;54.53;;
43938;Laerm;71382;47.750;10.226;2023-08-06T03:05:33;36.43;30.27;55.84;;
43938;Laerm;71382;47.750;10.226;2023-08-06T03:07:59;33.86;30.29;45.84;;
43938;Laerm;71382;47.750;10.226;2023-08-06T03:10:27;32.99;30.60;46.29;;
43938;Laerm;71382;47.750;10.226;2023-08-06T03:12:55;35.36;30.40;50.10;;
43938;Laerm;71382;47.750;10.226;2023-08-06T03:15:21;37.15;30.31;50.88;;
43938;Laerm;71382;47.750;10.226;2023-08-06T03:17:47;44.13;30.70;67.67;;
43938;Laerm;71382;47.750;10.226;2023-08-06T03:20:14;41.75;30.87;60.93;;
43938;Laerm;71382;47.750;10.226;2023-08-06T03:22:39;37.37;30.94;55.36;;
43938;Laerm;71382;47.750;10.226;2023-08-06T03:25:06;40.12;30.16;63.46;;
43938;Laerm;71382;47.750;10.226;2023-08-06T03:27:33;31.46;30.11;38.04;;
43938;Laerm;71382;47.750;10.226;2023-08-06T03:29:58;33.17;30.52;49.63;;
43938;Laerm;71382;47.750;10.226;2023-08-06T03:32:26;32.37;30.26;45.93;;
43938;Laerm;71382;47.750;10.226;2023-08-06T03:34:52;33.08;30.74;43.75;;
43938;Laerm;71382;47.750;10.226;2023-08-06T03:37:19;38.33;30.48;53.00;;
43938;Laerm;71382;47.750;10.226;2023-08-06T03:39:44;40.43;30.85;61.98;;
43938;Laerm;71382;47.750;10.226;2023-08-06T03:42:10;45.10;31.55;61.09;;
43938;Laerm;71382;47.750;10.226;2023-08-06T03:44:36;36.89;30.96;58.63;;
43938;Laerm;71382;47.750;10.226;2023-08-06T03:47:01;39.23;30.92;55.85;;
43938;Laerm;71382;47.750;10.226;2023-08-06T03:49:27;38.55;31.27;59.12;;
43938;Laerm;71382;47.750;10.226;2023-08-06T03:51:52;43.83;31.24;67.53;;
43938;Laerm;71382;47.750;10.226;2023-08-06T03:54:18;42.03;30.77;60.71;;
43938;Laerm;71382;47.750;10.226;2023-08-06T03:56:45;38.30;32.25;51.11;;
43938;Laerm;71382;47.750;10.226;2023-08-06T03:59:10;34.85;31.20;51.90;;
43938;Laerm;71382;47.750;10.226;2023-08-06T04:01:36;41.10;31.17;67.69;;
43938;Laerm;71382;47.750;10.226;2023-08-06T04:04:02;41.80;32.65;63.17;;
43938;Laerm;71382;47.750;10.226;2023-08-06T04:06:27;39.27;31.83;58.41;;
43938;Laerm;71382;47.750;10.226;2023-08-06T04:08:53;47.77;32.08;68.83;;
43938;Laerm;71382;47.750;10.226;2023-08-06T04:11:19;36.09;30.94;54.39;;
43938;Laerm;71382;47.750;10.226;2023-08-06T04:13:44;36.79;31.18;55.87;;
43938;Laerm;71382;47.750;10.226;2023-08-06T04:16:10;44.24;31.08;64.17;;
43938;Laerm;71382;47.750;10.226;2023-08-06T04:18:36;37.25;31.69;56.76;;
43938;Laerm;71382;47.750;10.226;2023-08-06T04:21:02;39.94;31.46;53.74;;
43938;Laerm;71382;47.750;10.226;2023-08-06T04:23:27;43.26;33.14;56.70;;
43938;Laerm;71382;47.750;10.226;2023-08-06T04:25:57;40.32;34.21;48.64;;
43938;Laerm;71382;47.750;10.226;2023-08-06T04:28:24;41.38;31.58;58.53;;
43938;Laerm;71382;47.750;10.226;2023-08-06T04:30:50;37.71;31.97;53.82;;
43938;Laerm;71382;47.750;10.226;2023-08-06T04:33:16;38.30;32.57;50.31;;
43938;Laerm;71382;47.750;10.226;2023-08-06T04:35:42;46.62;32.73;64.24;;
43938;Laerm;71382;47.750;10.226;2023-08-06T04:38:07;49.74;32.83;73.82;;
43938;Laerm;71382;47.750;10.226;2023-08-06T04:40:33;39.94;32.66;56.43;;
43938;Laerm;71382;47.750;10.226;2023-08-06T04:42:59;49.15;33.14;69.66;;
43938;Laerm;71382;47.750;10.226;2023-08-06T04:45:26;44.23;33.84;65.84;;
43938;Laerm;71382;47.750;10.226;2023-08-06T04:47:52;44.82;32.96;68.46;;
43938;Laerm;71382;47.750;10.226;2023-08-06T04:50:19;47.23;34.15;68.46;;
43938;Laerm;71382;47.750;10.226;2023-08-06T04:52:45;44.93;33.39;68.08;;
43938;Laerm;71382;47.750;10.226;2023-08-06T04:55:10;41.95;33.51;59.05;;
43938;Laerm;71382;47.750;10.226;2023-08-06T04:57:36;49.52;34.25;70.35;;
43938;Laerm;71382;47.750;10.226;2023-08-06T05:00:02;50.45;33.41;73.15;;
43938;Laerm;71382;47.750;10.226;2023-08-06T05:02:27;49.71;34.26;68.88;;
43938;Laerm;71382;47.750;10.226;2023-08-06T05:04:53;45.71;34.35;65.36;;
43938;Laerm;71382;47.750;10.226;2023-08-06T05:07:19;45.28;34.24;65.73;;
43938;Laerm;71382;47.750;10.226;2023-08-06T05:09:44;51.48;33.75;70.35;;
43938;Laerm;71382;47.750;10.226;2023-08-06T05:12:10;40.39;34.82;55.72;;
43938;Laerm;71382;47.750;10.226;2023-08-06T05:14:36;43.16;34.97;60.31;;
43938;Laerm;71382;47.750;10.226;2023-08-06T05:17:01;52.27;34.64;72.07;;
43938;Laerm;71382;47.750;10.226;2023-08-06T05:19:29;42.35;34.57;59.45;;
43938;Laerm;71382;47.750;10.226;2023-08-06T05:21:55;45.24;35.13;69.27;;
43938;Laerm;71382;47.750;10.226;2023-08-06T05:24:20;45.26;33.17;62.86;;
43938;Laerm;71382;47.750;10.226;2023-08-06T05:26:46;44.78;33.90;60.68;;
43938;Laerm;71382;47.750;10.226;2023-08-06T05:29:13;38.11;32.39;51.68;;
43938;Laerm;71382;47.750;10.226;2023-08-06T05:31:38;42.78;32.70;53.73;;
43938;Laerm;71382;47.750;10.226;2023-08-06T05:34:04;43.02;31.48;59.85;;
43938;Laerm;71382;47.750;10.226;2023-08-06T05:36:30;39.55;32.73;50.99;;
43938;Laerm;71382;47.750;10.226;2023-08-06T05:38:55;46.91;34.17;69.80;;
43938;Laerm;71382;47.750;10.226;2023-08-06T05:41:21;47.70;34.51;65.51;;
43938;Laerm;71382;47.750;10.226;2023-08-06T05:43:46;41.76;33.87;53.15;;
43938;Laerm;71382;47.750;10.226;2023-08-06T05:46:12;41.91;33.73;55.88;;
43938;Laerm;71382;47.750;10.226;2023-08-06T05:48:38;38.12;32.82;55.07;;
43938;Laerm;71382;47.750;10.226;2023-08-06T05:51:03;51.38;32.28;75.57;;
43938;Laerm;71382;47.750;10.226;2023-08-06T05:53:29;34.16;31.61;48.52;;
43938;Laerm;71382;47.750;10.226;2023-08-06T05:55:54;38.34;31.93;58.38;;
43938;Laerm;71382;47.750;10.226;2023-08-06T05:58:20;36.65;32.01;49.41;;
43938;Laerm;71382;47.750;10.226;2023-08-06T06:00:46;37.59;31.99;48.75;;
43938;Laerm;71382;47.750;10.226;2023-08-06T06:03:11;37.79;31.65;48.71;;
43938;Laerm;71382;47.750;10.226;2023-08-06T06:05:37;43.31;35.95;56.23;;
43938;Laerm;71382;47.750;10.226;2023-08-06T06:08:04;43.35;34.85;52.27;;
43938;Laerm;71382;47.750;10.226;2023-08-06T06:10:30;38.81;35.11;46.82;;
43938;Laerm;71382;47.750;10.226;2023-08-06T06:12:55;42.29;37.88;50.92;;
43938;Laerm;71382;47.750;10.226;2023-08-06T06:15:21;49.25;36.30;66.42;;
43938;Laerm;71382;47.750;10.226;2023-08-06T06:17:47;40.79;35.59;59.46;;
43938;Laerm;71382;47.750;10.226;2023-08-06T06:20:12;45.95;35.20;66.60;;
43938;Laerm;71382;47.750;10.226;2023-08-06T06:22:38;40.45;34.47;56.83;;
43938;Laerm;71382;47.750;10.226;2023-08-06T06:25:03;43.63;35.80;61.78;;
43938;Laerm;71382;47.750;10.226;2023-08-06T06:27:29;53.30;35.98;73.83;;
43938;Laerm;71382;47.750;10.226;2023-08-06T06:29:55;50.36;34.59;71.32;;
43938;Laerm;71382;47.750;10.226;2023-08-06T06:32:21;46.36;34.54;67.89;;
43938;Laerm;71382;47.750;10.226;2023-08-06T06:34:46;50.40;34.87;71.42;;
43938;Laerm;71382;47.750;10.226;2023-08-06T06:37:12;57.30;35.77;78.03;;
43938;Laerm;71382;47.750;10.226;2023-08-06T06:39:37;55.14;36.24;74.00;;
43938;Laerm;71382;47.750;10.226;2023-08-06T06:42:03;50.57;35.11;67.68;;
43938;Laerm;71382;47.750;10.226;2023-08-06T06:44:35;49.43;35.14;71.52;;
43938;Laerm;71382;47.750;10.226;2023-08-06T06:47:01;48.94;36.90;68.00;;
43938;Laerm;71382;47.750;10.226;2023-08-06T06:49:27;45.93;36.19;63.76;;
43938;Laerm;71382;47.750;10.226;2023-08-06T06:51:52;57.30;38.00;76.52;;
43938;Laerm;71382;47.750;10.226;2023-08-06T06:54:18;55.82;38.52;76.23;;
43938;Laerm;71382;47.750;10.226;2023-08-06T06:56:43;51.07;38.42;73.37;;
43938;Laerm;71382;47.750;10.226;2023-08-06T06:59:09;55.42;38.99;78.21;;
43938;Laerm;71382;47.750;10.226;2023-08-06T07:01:34;63.98;38.59;86.46;;
43938;Laerm;71382;47.750;10.226;2023-08-06T07:04:00;57.28;39.34;78.16;;
43938;Laerm;71382;47.750;10.226;2023-08-06T07:06:30;53.93;40.73;76.07;;
43938;Laerm;71382;47.750;10.226;2023-08-06T07:08:56;52.99;40.31;71.59;;
43938;Laerm;71382;47.750;10.226;2023-08-06T07:11:21;56.15;38.38;76.09;;
43938;Laerm;71382;47.750;10.226;2023-08-06T07:13:47;54.34;38.90;72.59;;
43938;Laerm;71382;47.750;10.226;2023-08-06T07:16:12;61.26;39.10;79.12;;
43938;Laerm;71382;47.750;10.226;2023-08-06T07:18:38;57.80;40.64;77.84;;
43938;Laerm;71382;47.750;10.226;2023-08-06T07:21:04;54.70;37.37;73.15;;
43938;Laerm;71382;47.750;10.226;2023-08-06T07:23:29;54.77;35.77;76.73;;
43938;Laerm;71382;47.750;10.226;2023-08-06T07:25:55;51.81;38.12;72.72;;
43938;Laerm;71382;47.750;10.226;2023-08-06T07:28:20;49.27;37.91;64.93;;
43938;Laerm;71382;47.750;10.226;2023-08-06T07:30:46;56.36;38.48;75.43;;
43938;Laerm;71382;47.750;10.226;2023-08-06T07:33:12;59.63;39.56;79.14;;
43938;Laerm;71382;47.750;10.226;2023-08-06T07:35:38;57.74;36.86;82.49;;
43938;Laerm;71382;47.750;10.226;2023-08-06T07:38:03;48.66;35.48;68.18;;
43938;Laerm;71382;47.750;10.226;2023-08-06T07:40:29;55.28;38.08;75.67;;
43938;Laerm;71382;47.750;10.226;2023-08-06T07:42:55;53.22;36.58;75.91;;
43938;Laerm;71382;47.750;10.226;2023-08-06T07:45:20;50.17;35.89;69.25;;
43938;Laerm;71382;47.750;10.226;2023-08-06T07:47:46;43.54;36.11;63.02;;
43938;Laerm;71382;47.750;10.226;2023-08-06T07:50:12;53.10;35.51;75.48;;
43938;Laerm;71382;47.750;10.226;2023-08-06T07:52:38;53.35;35.98;74.52;;
43938;Laerm;71382;47.750;10.226;2023-08-06T07:55:03;49.47;36.81;71.89;;
43938;Laerm;71382;47.750;10.226;2023-08-06T07:57:33;53.92;37.97;79.11;;
43938;Laerm;71382;47.750;10.226;2023-08-06T08:00:00;51.99;36.25;71.53;;
43938;Laerm;71382;47.750;10.226;2023-08-06T08:02:25;47.05;37.25;67.56;;
43938;Laerm;71382;47.750;10.226;2023-08-06T08:04:51;53.18;38.28;75.50;;
43938;Laerm;71382;47.750;10.226;2023-08-06T08:07:16;50.85;37.06;70.06;;
43938;Laerm;71382;47.750;10.226;2023-08-06T08:09:42;53.62;35.78;75.49;;
43938;Laerm;71382;47.750;10.226;2023-08-06T08:12:08;49.01;37.55;66.91;;
43938;Laerm;71382;47.750;10.226;2023-08-06T08:14:33;47.34;36.20;62.02;;
43938;Laerm;71382;47.750;10.226;2023-08-06T08:17:02;41.90;35.12;57.59;;
43938;Laerm;71382;47.750;10.226;2023-08-06T08:19:28;50.16;35.16;62.70;;
43938;Laerm;71382;47.750;10.226;2023-08-06T08:21:53;45.24;34.12;58.61;;
43938;Laerm;71382;47.750;10.226;2023-08-06T08:24:19;40.25;32.67;58.70;;
43938;Laerm;71382;47.750;10.226;2023-08-06T08:26:45;46.52;34.43;64.23;;
43938;Laerm;71382;47.750;10.226;2023-08-06T08:29:11;46.14;35.10;64.23;;
43938;Laerm;71382;47.750;10.226;2023-08-06T08:31:36;57.15;34.66;82.37;;
43938;Laerm;71382;47.750;10.226;2023-08-06T08:34:05;48.02;36.13;67.27;;
43938;Laerm;71382;47.750;10.226;2023-08-06T08:36:31;50.80;36.56;68.88;;
43938;Laerm;71382;47.750;10.226;2023-08-06T08:38:57;46.48;35.76;70.08;;
43938;Laerm;71382;47.750;10.226;2023-08-06T08:41:22;45.10;33.84;62.81;;
43938;Laerm;71382;47.750;10.226;2023-08-06T08:43:49;41.46;33.73;57.14;;
43938;Laerm;71382;47.750;10.226;2023-08-06T08:46:16;53.86;36.82;75.43;;
43938;Laerm;71382;47.750;10.226;2023-08-06T08:48:42;42.64;36.36;60.71;;
43938;Laerm;71382;47.750;10.226;2023-08-06T08:51:09;46.31;36.56;64.98;;
43938;Laerm;71382;47.750;10.226;2023-08-06T08:53:35;47.01;37.97;62.52;;
43938;Laerm;71382;47.750;10.226;2023-08-06T08:56:03;56.44;36.94;81.10;;
43938;Laerm;71382;47.750;10.226;2023-08-06T08:58:29;49.47;37.73;66.30;;
43938;Laerm;71382;47.750;10.226;2023-08-06T09:00:55;52.48;36.50;72.46;;
43938;Laerm;71382;47.750;10.226;2023-08-06T09:03:21;42.25;34.42;56.41;;
43938;Laerm;71382;47.750;10.226;2023-08-06T09:05:47;47.98;34.52;64.65;;
43938;Laerm;71382;47.750;10.226;2023-08-06T09:08:15;43.40;34.31;65.69;;
43938;Laerm;71382;47.750;10.226;2023-08-06T09:10:43;46.80;34.95;63.61;;
43938;Laerm;71382;47.750;10.226;2023-08-06T09:13:08;55.08;38.34;77.81;;
43938;Laerm;71382;47.750;10.226;2023-08-06T09:15:34;56.65;37.63;76.94;;
43938;Laerm;71382;47.750;10.226;2023-08-06T09:18:00;56.30;39.45;74.30;;
43938;Laerm;71382;47.750;10.226;2023-08-06T09:20:25;57.71;40.47;79.31;;
43938;Laerm;71382;47.750;10.226;2023-08-06T09:22:54;53.93;38.63;76.96;;
43938;Laerm;71382;47.750;10.226;2023-08-06T09:25:23;51.62;37.92;74.64;;
43938;Laerm;71382;47.750;10.226;2023-08-06T09:27:50;60.01;37.84;81.38;;
43938;Laerm;71382;47.750;10.226;2023-08-06T09:33:12;65.16;40.27;87.09;;
43938;Laerm;71382;47.750;10.226;2023-08-06T09:35:42;51.73;39.78;73.98;;
43938;Laerm;71382;47.750;10.226;2023-08-06T09:38:09;46.24;38.04;62.20;;
43938;Laerm;71382;47.750;10.226;2023-08-06T09:40:36;55.22;40.24;78.80;;
43938;Laerm;71382;47.750;10.226;2023-08-06T09:43:02;49.44;40.58;69.89;;
43938;Laerm;71382;47.750;10.226;2023-08-06T09:45:37;56.38;39.45;78.05;;
43938;Laerm;71382;47.750;10.226;2023-08-06T09:48:06;48.21;37.65;69.90;;
43938;Laerm;71382;47.750;10.226;2023-08-06T09:50:33;56.61;39.48;75.06;;
43938;Laerm;71382;47.750;10.226;2023-08-06T09:52:59;46.36;38.23;68.36;;
43938;Laerm;71382;47.750;10.226;2023-08-06T09:55:26;52.80;36.28;73.27;;
43938;Laerm;71382;47.750;10.226;2023-08-06T09:57:52;50.13;37.72;72.10;;
43938;Laerm;71382;47.750;10.226;2023-08-06T10:00:18;60.01;36.65;77.23;;
43938;Laerm;71382;47.750;10.226;2023-08-06T10:02:46;52.03;35.79;71.55;;
43938;Laerm;71382;47.750;10.226;2023-08-06T10:05:12;50.90;36.49;68.85;;
43938;Laerm;71382;47.750;10.226;2023-08-06T10:07:38;55.06;37.34;75.88;;
43938;Laerm;71382;47.750;10.226;2023-08-06T10:10:05;58.41;37.62;79.16;;
43938;Laerm;71382;47.750;10.226;2023-08-06T10:12:32;62.15;41.58;86.41;;
43938;Laerm;71382;47.750;10.226;2023-08-06T10:15:01;50.77;37.00;72.89;;
43938;Laerm;71382;47.750;10.226;2023-08-06T10:17:27;53.63;35.95;70.75;;
43938;Laerm;71382;47.750;10.226;2023-08-06T10:19:53;45.75;36.67;63.29;;
43938;Laerm;71382;47.750;10.226;2023-08-06T10:22:22;47.78;36.02;64.80;;
43938;Laerm;71382;47.750;10.226;2023-08-06T10:24:55;45.70;35.68;61.33;;
43938;Laerm;71382;47.750;10.226;2023-08-06T10:27:22;51.69;38.89;70.55;;
43938;Laerm;71382;47.750;10.226;2023-08-06T10:29:48;57.95;38.18;77.11;;
43938;Laerm;71382;47.750;10.226;2023-08-06T10:32:16;59.09;36.32;83.73;;
43938;Laerm;71382;47.750;10.226;2023-08-06T10:37:24;46.20;35.60;64.15;;
43938;Laerm;71382;47.750;10.226;2023-08-06T10:39:59;48.58;37.17;66.70;;
43938;Laerm;71382;47.750;10.226;2023-08-06T10:42:28;52.91;38.70;74.23;;
43938;Laerm;71382;47.750;10.226;2023-08-06T10:45:13;54.84;41.60;79.79;;
43938;Laerm;71382;47.750;10.226;2023-08-06T10:47:39;48.80;38.05;71.03;;
43938;Laerm;71382;47.750;10.226;2023-08-06T10:50:11;48.53;38.74;68.78;;
43938;Laerm;71382;47.750;10.226;2023-08-06T10:52:36;55.51;40.91;77.66;;
43938;Laerm;71382;47.750;10.226;2023-08-06T10:55:03;52.45;37.76;74.84;;
43938;Laerm;71382;47.750;10.226;2023-08-06T10:57:28;51.25;37.62;71.12;;
43938;Laerm;71382;47.750;10.226;2023-08-06T10:59:54;58.11;39.74;79.64;;
43938;Laerm;71382;47.750;10.226;2023-08-06T11:02:19;52.52;37.69;71.08;;
43938;Laerm;71382;47.750;10.226;2023-08-06T11:04:45;48.66;35.64;68.45;;
43938;Laerm;71382;47.750;10.226;2023-08-06T11:07:11;47.72;35.75;62.42;;
43938;Laerm;71382;47.750;10.226;2023-08-06T11:09:38;55.94;36.68;74.19;;
43938;Laerm;71382;47.750;10.226;2023-08-06T11:12:08;60.66;37.99;82.36;;
43938;Laerm;71382;47.750;10.226;2023-08-06T11:14:34;49.23;35.33;64.59;;
43938;Laerm;71382;47.750;10.226;2023-08-06T11:17:00;41.38;35.23;58.17;;
43938;Laerm;71382;47.750;10.226;2023-08-06T11:19:26;45.78;34.01;64.67;;
43938;Laerm;71382;47.750;10.226;2023-08-06T11:21:51;49.08;35.77;66.33;;
43938;Laerm;71382;47.750;10.226;2023-08-06T11:24:17;51.99;36.26;74.53;;
43938;Laerm;71382;47.750;10.226;2023-08-06T11:26:43;48.69;36.76;68.53;;
43938;Laerm;71382;47.750;10.226;2023-08-06T11:29:10;53.31;37.74;75.42;;
43938;Laerm;71382;47.750;10.226;2023-08-06T11:31:36;53.80;41.34;73.93;;
43938;Laerm;71382;47.750;10.226;2023-08-06T11:34:01;53.89;39.30;73.07;;
43938;Laerm;71382;47.750;10.226;2023-08-06T11:38:56;56.01;37.95;73.20;;
43938;Laerm;71382;47.750;10.226;2023-08-06T11:41:22;52.40;36.88;69.93;;
43938;Laerm;71382;47.750;10.226;2023-08-06T11:43:48;51.89;36.53;67.63;;
43938;Laerm;71382;47.750;10.226;2023-08-06T11:46:13;54.31;36.06;72.25;;
43938;Laerm;71382;47.750;10.226;2023-08-06T11:49:00;55.43;36.79;77.37;;
43938;Laerm;71382;47.750;10.226;2023-08-06T11:51:25;58.64;38.65;77.73;;
43938;Laerm;71382;47.750;10.226;2023-08-06T11:53:55;58.14;42.27;78.05;;
43938;Laerm;71382;47.750;10.226;2023-08-06T11:56:21;60.65;39.79;85.68;;
43938;Laerm;71382;47.750;10.226;2023-08-06T11:58:46;56.39;38.17;77.32;;
43938;Laerm;71382;47.750;10.226;2023-08-06T12:01:13;61.23;39.98;78.77;;
43938;Laerm;71382;47.750;10.226;2023-08-06T12:03:39;52.66;37.63;69.42;;
43938;Laerm;71382;47.750;10.226;2023-08-06T12:06:05;56.94;41.21;78.26;;
43938;Laerm;71382;47.750;10.226;2023-08-06T12:08:30;60.39;39.53;81.92;;
43938;Laerm;71382;47.750;10.226;2023-08-06T12:10:56;60.06;39.79;82.71;;
43938;Laerm;71382;47.750;10.226;2023-08-06T12:13:21;49.48;36.32;67.67;;
43938;Laerm;71382;47.750;10.226;2023-08-06T12:15:47;52.93;37.35;74.95;;
43938;Laerm;71382;47.750;10.226;2023-08-06T12:18:13;53.99;38.18;76.23;;
43938;Laerm;71382;47.750;10.226;2023-08-06T12:20:38;52.28;39.08;69.75;;
43938;Laerm;71382;47.750;10.226;2023-08-06T12:23:04;54.84;40.20;73.84;;
43938;Laerm;71382;47.750;10.226;2023-08-06T12:25:30;53.09;38.29;72.47;;
43938;Laerm;71382;47.750;10.226;2023-08-06T12:27:55;49.03;35.52;69.39;;
43938;Laerm;71382;47.750;10.226;2023-08-06T12:30:21;50.86;36.38;66.36;;
43938;Laerm;71382;47.750;10.226;2023-08-06T12:32:47;50.30;38.82;71.19;;
43938;Laerm;71382;47.750;10.226;2023-08-06T12:35:12;50.66;37.75;67.14;;
43938;Laerm;71382;47.750;10.226;2023-08-06T12:37:39;52.37;36.26;73.55;;
43938;Laerm;71382;47.750;10.226;2023-08-06T12:40:05;51.07;38.56;70.09;;
43938;Laerm;71382;47.750;10.226;2023-08-06T12:42:31;47.74;36.78;64.82;;
43938;Laerm;71382;47.750;10.226;2023-08-06T12:44:58;54.40;36.29;80.78;;
43938;Laerm;71382;47.750;10.226;2023-08-06T12:47:23;59.78;40.51;79.94;;
43938;Laerm;71382;47.750;10.226;2023-08-06T12:49:49;55.70;37.24;77.31;;
43938;Laerm;71382;47.750;10.226;2023-08-06T12:52:15;54.64;36.40;71.35;;
43938;Laerm;71382;47.750;10.226;2023-08-06T12:54:41;55.02;37.96;74.05;;
43938;Laerm;71382;47.750;10.226;2023-08-06T12:57:07;64.53;40.08;90.37;;
43938;Laerm;71382;47.750;10.226;2023-08-06T12:59:33;54.07;37.79;72.80;;
43938;Laerm;71382;47.750;10.226;2023-08-06T13:01:59;50.91;37.21;66.27;;
43938;Laerm;71382;47.750;10.226;2023-08-06T13:04:25;51.52;37.80;77.47;;
43938;Laerm;71382;47.750;10.226;2023-08-06T13:06:50;47.25;36.07;65.78;;
43938;Laerm;71382;47.750;10.226;2023-08-06T13:09:16;50.68;35.93;69.26;;
43938;Laerm;71382;47.750;10.226;2023-08-06T13:11:42;46.06;35.71;61.38;;
43938;Laerm;71382;47.750;10.226;2023-08-06T13:14:11;49.76;35.30;69.69;;
43938;Laerm;71382;47.750;10.226;2023-08-06T13:16:38;50.26;35.91;67.30;;
43938;Laerm;71382;47.750;10.226;2023-08-06T13:19:04;50.16;35.88;68.98;;
43938;Laerm;71382;47.750;10.226;2023-08-06T13:21:34;47.45;35.64;60.13;;
43938;Laerm;71382;47.750;10.226;2023-08-06T13:24:01;49.01;35.60;68.58;;
43938;Laerm;71382;47.750;10.226;2023-08-06T13:26:27;48.10;36.95;70.20;;
43938;Laerm;71382;47.750;10.226;2023-08-06T13:28:53;47.92;36.47;65.66;;
43938;Laerm;71382;47.750;10.226;2023-08-06T13:31:19;49.67;37.56;74.48;;
43938;Laerm;71382;47.750;10.226;2023-08-06T13:33:44;50.76;37.69;70.85;;
43938;Laerm;71382;47.750;10.226;2023-08-06T13:36:10;52.59;38.96;71.89;;
43938;Laerm;71382;47.750;10.226;2023-08-06T13:38:36;56.48;38.39;79.89;;
43938;Laerm;71382;47.750;10.226;2023-08-06T13:41:02;49.47;37.44;68.75;;